Monday, November 20, 2017, 6:45 PM GMT
Back to Local

CYUL, Montreal / Pierre Elliot Trudeau International Airport, Que

Location: , , Canada Lat: 45.467
Local Time: 6:45 PM GMT (18:45 GMT) Lon: -73.75
Time Zone: GMT Elev: 101 ft

Show me the last for .
Show Decoded

2017-11-20 18:26 METAR CYUL 201826Z 28011KT 15SM SCT030 BKN044 M06/M11 A2989 RMK SC3SC4 SLP127 =
2017-11-20 18:00 METAR CYUL 201800Z 30010G16KT 12SM -SN FEW014 SCT035 BKN044 M06/M10 A2989 RMK
                 SF1SC3SC4 SF TR SLP126 =
2017-11-20 17:52 METAR CYUL 201752Z 29011G18KT 10SM -SN FEW014 BKN028 OVC040 M06/M10 A2989 RMK
                 SF1SC5SC3 SF TR SLP125 =
2017-11-20 17:44 METAR CYUL 201744Z 30009G18KT 5SM R24R/5000VP6000FT/U -SN FEW012 SCT025 OVC032
                 M06/M09 A2989 RMK SF1SC4SC4 SF TR WSHFT 1723 VIS SW 2 SLP124 =
2017-11-20 17:32 METAR CYUL 201732Z 29014G19KT 250V310 2SM -SN FEW012 BKN022 OVC032 M06/M10 A2988
                 RMK SN2SF1SC4SC2 SF TR SLP123 =
2017-11-20 17:00 METAR CYUL 201700Z 27014G24KT 15SM -SN SCT025 OVC032 M05/M11 A2988 RMK SC3SC5
                 SLP123 =
2017-11-20 16:00 METAR CYUL 201600Z 26015G23KT 15SM SCT028 BKN042 M05/M12 A2988 RMK SC4SC3 SLP123
                 =
2017-11-20 15:00 METAR CYUL 201500Z 24016G26KT 15SM FEW024 SCT033 BKN044 BKN240 M06/M10 A2988 RMK
                 SC2SC2SC2CI1 CI TR SLP123 =
2017-11-20 14:27 METAR CYUL 201427Z 25021G28KT 15SM SCT028 BKN045 M06/M12 A2989 RMK SC4SC2 SLP124
                 =
2017-11-20 14:00 METAR CYUL 201400Z 25020KT 10SM -SN DRSN SCT025 BKN035 M07/M12 A2988 RMK CU3SC4
                 SLP121 =
2017-11-20 13:35 METAR CYUL 201335Z 28017G22KT 30SM -SHSN DRSN SCT030 BKN035 M06/M13 A2987 RMK
                 CU4SC3 SLP118 =
2017-11-20 13:00 METAR CYUL 201300Z 26013KT 30SM FEW020 FEW060 FEW240 M07/M11 A2986 RMK CF1SC1CI1
                 SC TR CI TR PRESRR SLP117 =
2017-11-20 12:25 METAR CYUL 201225Z 28011G21KT 5SM -SN BKN020 BKN040 M07/M10 A2984 RMK SC5SC1
                 SLP109 =
2017-11-20 12:23 METAR CYUL 201223Z 28011G21KT 1SM R24R/P6000FT/D R24L/P6000FT/D -SN BKN020
                 M07/M10 A2984 RMK SC7 SLP109 =
2017-11-20 12:00 METAR CYUL 201200Z 28013G20KT 2 1/2SM -SN BKN022 OVC035 M07/M11 A2984 RMK SC7SC1
                 SLP107 =
2017-11-20 11:38 METAR CYUL 201138Z 28012G21KT 5SM -SN SCT025 OVC038 M06/M12 A2982 RMK SC4SC4 -SN
                 INTMT SLP103 =
2017-11-20 11:00 METAR CYUL 201100Z 28017G25KT 15SM VCSH FEW023 OVC035 M06/M12 A2980 RMK SC1SC7
                 SLP093 =
2017-11-20 10:00 METAR CYUL 201000Z 27015G24KT 15SM -SN SCT023 OVC032 M06/M11 A2977 RMK SC3SC5
                 PRESRR SLP084 =
2017-11-20 09:00 METAR CYUL 200900Z 27012G21KT 15SM FEW020 FEW050 BKN075 M05/M10 A2973 RMK
                 SC1SC1AC6 SC TR SLP072 =
2017-11-20 08:00 METAR CYUL 200800Z 26013G26KT 15SM FEW019 FEW060 OVC085 M04/M09 A2971 RMK
                 SC1SC1AC7 SC TR SLP065 =
2017-11-20 07:00 METAR CYUL 200700Z 27012KT 15SM BKN019 OVC095 M03/M07 A2969 RMK SC7AC1 SLP058 =
2017-11-20 06:00 METAR CYUL 200600Z 28013KT 15SM FEW020 OVC095 M03/M08 A2967 RMK SC1AC8 SC TR
                 SLP050 =
2017-11-20 05:00 METAR CYUL 200500Z 28011G16KT 15SM FEW020 OVC100 M03/M07 A2966 RMK CF1AC8 CF TR
                 SLP046 =
2017-11-20 04:00 METAR CYUL 200400Z 28016G22KT 15SM FEW020 FEW085 BKN110 OVC250 M03/M08 A2964 RMK
                 SC1AC1AC4CI3 SC TR SLP039 =
2017-11-20 03:28 METAR CYUL 200328Z 27018KT 15SM FEW020 FEW032 BKN110 BKN180 M03/M07 A2963 RMK
                 SC1SC1AC4AC2 SC TR SLP036 =
2017-11-20 03:00 METAR CYUL 200300Z 28017G27KT 15SM -SN SCT025 BKN110 BKN180 M03/M07 A2962 RMK
                 SC4AC1AC2 SLP034 =
2017-11-20 02:17 METAR CYUL 200217Z 28010G17KT 15SM -SN BKN023 OVC035 M02/M07 A2961 RMK SC5SC3
                 SLP030 =
2017-11-20 02:00 METAR CYUL 200200Z 27015G22KT 15SM FEW025 BKN035 M02/M07 A2960 RMK SC1SC6 SC TR
                 SLP026 =
2017-11-20 01:20 METAR CYUL 200120Z 27020G28KT 15SM FEW025 BKN035 M02/M07 A2958 RMK SC1SC6 PRESRR
                 SLP020 =
2017-11-20 01:00 METAR CYUL 200100Z 26020G27KT 15SM -SN FEW025 BKN037 M02/M06 A2956 RMK SC1SC5
                 SLP013 =
2017-11-20 00:00 METAR CYUL 200000Z 27012KT 15SM -SN BKN027 OVC036 M01/M05 A2955 RMK SC5SC3
                 SLP009 =
2017-11-19 23:00 METAR CYUL 192300Z 26014G21KT 15SM -SN BKN025 OVC035 M01/M04 A2953 RMK SC5SC3
                 SLP003 =
2017-11-19 22:00 METAR CYUL 192200Z 26012G18KT 15SM -SN OVC030 M01/M04 A2951 RMK SC8 SLP996 =
2017-11-19 21:25 METAR CYUL 192125Z 25010G16KT 15SM -SN FEW017 BKN022 OVC030 M01/M04 A2949 RMK
                 SF1SC4SC3 SLP989 =
2017-11-19 21:00 METAR CYUL 192100Z 26012G18KT 15SM OVC030 M01/M04 A2947 RMK SC8 SLP984 =
2017-11-19 20:00 METAR CYUL 192000Z 27016G26KT 15SM FEW022 OVC030 M01/M05 A2943 RMK SC2SC6 SLP969
                 =
2017-11-19 19:00 METAR CYUL 191900Z 28016G31KT 15SM FEW014 BKN023 OVC032 M01/M05 A2938 RMK
                 SF1SC5SC3 SF TR SLP953 =

Support USWX by starting your Amazon purchase here.